createdAt,value
2019-05-02T00:00:15.700Z,91
2019-05-02T00:05:15.698Z,91
2019-05-02T00:10:19.850Z,91
2019-05-02T00:15:15.696Z,91
2019-05-02T00:20:15.684Z,91
2019-05-02T00:25:17.127Z,91
2019-05-02T00:30:15.684Z,91
2019-05-02T00:35:15.681Z,91
2019-05-02T00:40:19.970Z,91
2019-05-02T00:45:18.591Z,91
2019-05-02T00:50:15.703Z,91
2019-05-02T00:55:15.744Z,91
2019-05-02T01:00:18.234Z,91
2019-05-02T01:05:15.691Z,90
2019-05-02T01:10:17.191Z,90
2019-05-02T01:15:15.722Z,90
2019-05-02T01:20:15.717Z,90
2019-05-02T01:25:17.213Z,90
2019-05-02T01:30:15.702Z,90
2019-05-02T01:35:15.716Z,90
2019-05-02T01:40:17.671Z,90
2019-05-02T01:45:15.722Z,89
2019-05-02T01:50:15.728Z,89
2019-05-02T01:55:16.912Z,89
2019-05-02T02:00:15.747Z,89
2019-05-02T02:05:15.735Z,89
2019-05-02T02:10:19.717Z,89
2019-05-02T02:15:15.756Z,89
2019-05-02T02:20:15.762Z,89
2019-05-02T02:25:15.745Z,89
2019-05-02T02:30:17.479Z,88
2019-05-02T02:35:15.726Z,88
2019-05-02T02:40:15.750Z,88
2019-05-02T02:45:18.505Z,88
2019-05-02T02:50:15.727Z,88
2019-05-02T02:55:15.992Z,88
2019-05-02T03:00:15.735Z,88
2019-05-02T03:05:18.467Z,88
2019-05-02T03:10:15.768Z,88
2019-05-02T03:15:20.750Z,88
2019-05-02T03:20:15.728Z,88
2019-05-02T03:25:17.983Z,88
2019-05-02T03:30:28.709Z,88
2019-05-02T03:35:18.577Z,88
2019-05-02T03:40:15.771Z,88
2019-05-02T03:45:15.753Z,88
2019-05-02T03:50:15.786Z,88
2019-05-02T03:55:15.829Z,88
2019-05-02T04:00:20.673Z,88
2019-05-02T04:05:15.757Z,88
2019-05-02T04:10:19.621Z,88
2019-05-02T04:15:15.756Z,88
2019-05-02T04:20:15.748Z,88
2019-05-02T04:25:15.783Z,89
2019-05-02T04:30:15.775Z,89
2019-05-02T04:35:15.756Z,90
2019-05-02T04:40:18.145Z,90
2019-05-02T04:45:26.148Z,91
2019-05-02T04:50:18.423Z,91
2019-05-02T04:55:25.557Z,91
2019-05-02T05:00:18.290Z,91
2019-05-02T05:05:17.114Z,91
2019-05-02T05:10:18.246Z,91
2019-05-02T05:15:33.223Z,91
2019-05-02T05:20:15.943Z,91
2019-05-02T05:25:17.520Z,91
2019-05-02T05:30:18.605Z,91
2019-05-02T05:35:17.665Z,92
2019-05-02T05:40:17.628Z,92
2019-05-02T05:45:17.359Z,91
2019-05-02T05:50:17.566Z,91
2019-05-02T05:55:18.116Z,91
2019-05-02T06:00:22.580Z,91
2019-05-02T06:05:17.437Z,91
2019-05-02T06:10:15.806Z,91
2019-05-02T06:15:15.803Z,91
2019-05-02T06:20:15.786Z,91
2019-05-02T06:25:15.836Z,91
2019-05-02T06:30:15.785Z,91
2019-05-02T06:35:17.036Z,91
2019-05-02T06:40:15.838Z,91
2019-05-02T06:45:15.826Z,91
2019-05-02T06:50:15.812Z,91
2019-05-02T06:55:15.878Z,91
2019-05-02T07:00:15.819Z,91
2019-05-02T07:05:15.833Z,91
2019-05-02T07:10:19.934Z,91
2019-05-02T07:15:15.865Z,91
2019-05-02T07:20:15.832Z,91
2019-05-02T07:25:15.869Z,91
2019-05-02T07:30:15.841Z,91
2019-05-02T07:35:19.117Z,91
2019-05-02T07:40:16.749Z,91
2019-05-02T07:45:15.807Z,92
2019-05-02T07:50:15.919Z,92
2019-05-02T07:55:15.899Z,92
2019-05-02T08:00:15.810Z,92
2019-05-02T08:05:21.461Z,93
2019-05-02T08:10:16.204Z,93
2019-05-02T08:15:15.819Z,93
2019-05-02T08:20:18.980Z,93
2019-05-02T08:25:15.852Z,93
2019-05-02T08:30:15.830Z,93
2019-05-02T08:35:15.842Z,93
2019-05-02T08:40:15.848Z,86
2019-05-02T08:45:15.838Z,79
2019-05-02T08:50:15.852Z,62
2019-05-02T08:55:15.854Z,56
2019-05-02T09:00:15.873Z,52
2019-05-02T09:05:15.870Z,51
2019-05-02T09:10:15.902Z,47
2019-05-02T09:15:15.863Z,39
2019-05-02T09:20:20.531Z,36
2019-05-02T09:25:15.870Z,35
2019-05-02T09:30:16.972Z,35
2019-05-02T09:35:15.889Z,32
2019-05-02T09:40:16.757Z,32
2019-05-02T09:45:16.265Z,30
2019-05-02T09:50:20.441Z,32
2019-05-02T09:55:15.914Z,32
2019-05-02T10:00:15.896Z,34
2019-05-02T10:05:15.892Z,34
2019-05-02T10:10:15.890Z,32
2019-05-02T10:15:15.920Z,28
2019-05-02T10:20:15.895Z,27
2019-05-02T10:25:15.894Z,26
2019-05-02T10:30:15.994Z,25
2019-05-02T10:35:15.869Z,25
2019-05-02T10:40:17.202Z,29
2019-05-02T10:45:16.791Z,30
2019-05-02T10:50:15.864Z,29
2019-05-02T10:55:15.954Z,28
2019-05-02T11:00:15.884Z,27
2019-05-02T11:05:16.786Z,25
2019-05-02T11:10:15.906Z,24
2019-05-02T11:15:15.895Z,25
2019-05-02T11:20:15.895Z,25
2019-05-02T11:25:15.930Z,28
2019-05-02T11:30:16.693Z,28
2019-05-02T11:35:15.893Z,27
2019-05-02T11:40:15.918Z,26
2019-05-02T11:45:15.900Z,26
2019-05-02T11:50:15.903Z,28
2019-05-02T11:55:18.901Z,30
2019-05-02T12:00:15.942Z,30
2019-05-02T12:05:15.921Z,31
2019-05-02T12:10:15.949Z,33
2019-05-02T12:15:15.920Z,34
2019-05-02T12:20:15.923Z,35
2019-05-02T12:25:15.955Z,37
2019-05-02T12:30:16.008Z,39
2019-05-02T12:35:15.896Z,41
2019-05-02T12:40:15.924Z,42
2019-05-02T12:45:15.929Z,43
2019-05-02T12:50:15.953Z,43
2019-05-02T12:55:15.942Z,44
2019-05-02T13:00:18.339Z,44
2019-05-02T13:05:15.937Z,44
2019-05-02T13:10:15.963Z,45
2019-05-02T13:15:15.992Z,46
2019-05-02T13:20:15.941Z,46
2019-05-02T13:25:15.948Z,47
2019-05-02T13:30:15.914Z,47
2019-05-02T13:35:15.922Z,48
2019-05-02T13:40:17.156Z,48
2019-05-02T13:45:15.999Z,49
2019-05-02T13:50:15.933Z,49
2019-05-02T13:55:15.949Z,50
2019-05-02T14:00:15.968Z,50
2019-05-02T14:05:15.964Z,50
2019-05-02T14:10:15.987Z,49
2019-05-02T14:15:16.030Z,50
2019-05-02T14:20:15.966Z,50
2019-05-02T14:25:16.015Z,51
2019-05-02T14:30:15.990Z,51
2019-05-02T14:35:18.528Z,51
2019-05-02T14:40:15.996Z,51
2019-05-02T14:45:27.123Z,51
2019-05-02T14:50:24.021Z,51
2019-05-02T14:55:16.936Z,51
2019-05-02T15:00:16.932Z,51
2019-05-02T15:05:19.135Z,51
2019-05-02T15:10:15.984Z,51
2019-05-02T15:15:15.943Z,51
2019-05-02T15:20:15.958Z,51
2019-05-02T15:25:17.915Z,52
2019-05-02T15:30:16.126Z,51
2019-05-02T15:35:17.559Z,51
2019-05-02T15:45:15.965Z,51
2019-05-02T15:50:21.812Z,51
2019-05-02T15:55:15.985Z,51
2019-05-02T16:00:22.755Z,52
2019-05-02T16:05:15.966Z,52
2019-05-02T16:10:16.018Z,52
2019-05-02T16:15:21.188Z,52
2019-05-02T16:20:16.015Z,51
2019-05-02T16:25:19.931Z,48
2019-05-02T16:30:16.003Z,47
2019-05-02T16:35:17.300Z,48
2019-05-02T16:40:16.032Z,46
2019-05-02T16:45:16.007Z,44
2019-05-02T16:50:18.516Z,43
2019-05-02T16:55:20.695Z,44
2019-05-02T17:00:15.978Z,45
2019-05-02T17:05:16.006Z,47
2019-05-02T17:10:17.671Z,48
2019-05-02T17:15:16.006Z,49
2019-05-02T17:20:16.704Z,49
2019-05-02T17:25:16.032Z,50
2019-05-02T17:30:16.038Z,50
2019-05-02T17:35:16.058Z,51
2019-05-02T17:40:16.747Z,52
2019-05-02T17:45:16.025Z,54
2019-05-02T17:50:19.364Z,54
2019-05-02T17:55:16.019Z,56
2019-05-02T18:00:16.817Z,55
2019-05-02T18:05:16.030Z,56
2019-05-02T18:10:20.630Z,56
2019-05-02T18:15:16.035Z,56
2019-05-02T18:20:16.004Z,56
2019-05-02T18:25:16.213Z,56
2019-05-02T18:30:17.136Z,57
2019-05-02T18:35:16.034Z,58
2019-05-02T18:40:20.086Z,58
2019-05-02T18:45:16.067Z,59
2019-05-02T18:50:16.040Z,59
2019-05-02T18:55:17.068Z,60
2019-05-02T19:00:16.078Z,60
2019-05-02T19:05:19.114Z,62
2019-05-02T19:10:16.051Z,62
2019-05-02T19:15:16.054Z,63
2019-05-02T19:20:16.093Z,63
2019-05-02T19:25:16.052Z,64
2019-05-02T19:30:18.809Z,65
2019-05-02T19:35:16.089Z,65
2019-05-02T19:40:20.002Z,66
2019-05-02T19:45:16.782Z,67
2019-05-02T19:50:16.095Z,68
2019-05-02T19:55:19.882Z,69
2019-05-02T20:00:16.062Z,69
2019-05-02T20:05:16.393Z,69
2019-05-02T20:10:17.838Z,70
2019-05-02T20:15:16.982Z,71
2019-05-02T20:20:16.084Z,73
2019-05-02T20:25:16.044Z,78
2019-05-02T20:30:16.051Z,81
2019-05-02T20:35:16.084Z,87
2019-05-02T20:40:16.063Z,91
2019-05-02T20:45:16.090Z,91
2019-05-02T20:50:16.059Z,91
2019-05-02T20:55:16.070Z,91
2019-05-02T21:00:16.100Z,91
2019-05-02T21:05:16.085Z,91
2019-05-02T21:10:16.088Z,91
2019-05-02T21:15:18.201Z,91
2019-05-02T21:20:16.097Z,91
2019-05-02T21:25:16.086Z,91
2019-05-02T21:30:16.129Z,91
2019-05-02T21:35:16.096Z,91
2019-05-02T21:40:16.101Z,91
2019-05-02T21:45:16.124Z,91
2019-05-02T21:50:16.097Z,91
2019-05-02T21:55:16.105Z,91
2019-05-02T22:00:16.137Z,91
2019-05-02T22:05:16.110Z,91
2019-05-02T22:10:16.108Z,91
2019-05-02T22:15:16.138Z,91
2019-05-02T22:20:16.107Z,91
2019-05-02T22:25:16.119Z,91
2019-05-02T22:30:16.145Z,91
2019-05-02T22:35:16.107Z,91
2019-05-02T22:40:16.119Z,91
2019-05-02T22:45:16.148Z,91
2019-05-02T22:50:16.115Z,91
2019-05-02T22:55:16.122Z,91
2019-05-02T23:00:16.144Z,91
2019-05-02T23:05:16.121Z,91
2019-05-02T23:10:16.121Z,91
2019-05-02T23:15:16.155Z,91
2019-05-02T23:20:16.122Z,91
2019-05-02T23:25:16.130Z,91
2019-05-02T23:30:16.167Z,91
2019-05-02T23:35:16.149Z,91
2019-05-02T23:40:16.137Z,91
2019-05-02T23:45:16.160Z,91
2019-05-02T23:50:16.137Z,91
2019-05-02T23:55:16.142Z,91
